Accueil
METAR-TAF:

METAR-TAF

Aéroports :

Clermont-Ferrand, France

Aéroport de Clermont-Ferrand Auvergne

latitude: 45-47N, longitude: 003-10E, altitude: 332 m

Observation

Le bulletin a été fait il y a 33 minutes, à 08:30 UTC
Vent 6 kt de nord, variant entre nord/nord-ouest et nord-est
Température 5°C
Humidité 75%
Pression 1016 hPa
Visibilité 10 km ou plus
Nuages fragmentés à une hauteur de 1700 ft
Ciel couvert à une hauteur de 2400 ft

METAR: LFLC 270830Z AUTO 01006KT 340V050 9999 BKN017 OVC024 05/01 Q1016 NOSIG

Heure: 11:03 (09:03 UTC)

Prévision

Le bulletin a été fait il y a 1 heure et 3 minutes, à 08:00 UTC
Prévision valable du 27 à 09 UTC au 28 à 09 UTC
Vent 5 kt de nord
Visibilité 10 km ou plus
Ciel couvert à une hauteur de 1600 ft

TAF: LFLC 270800Z 2709/2809 36005KT 9999 OVC016

Observations et prévisions météorologiques de plus de 4000 aéroports (messages METAR et TAF).

Les stations disponibles sont représentées par des disques jaunes et rouges sur la carte.

Passer la souris dessus pour voir le nom de la station.

Cliquer dessus pour voir les observations et prévisions météorologiques.

Pour changer de carte: cliquez sur les boutons verts avec une croix noire pour zoomer, sur le bouton vert avec un tiret pour effectuer un zoom arrière, ou sur les flèches vertes pour les cartes adjacentes.


METAR-TAF: